sensor_id;sensor_type;location;lat;lon;timestamp;pressure;altitude;pressure_sealevel;temperature;humidity
68859;BME280;55864;49.238;8.092;2022-12-18T00:00:15;100666.66;;;-6.62;75.21
68859;BME280;55864;49.238;8.092;2022-12-18T00:02:17;100658.13;;;-6.66;75.64
68859;BME280;55864;49.238;8.092;2022-12-18T00:04:22;100653.84;;;-6.53;75.16
68859;BME280;55864;49.238;8.092;2022-12-18T00:06:25;100651.28;;;-6.53;75.61
68859;BME280;55864;49.238;8.092;2022-12-18T00:08:25;100645.31;;;-6.55;75.55
68859;BME280;55864;49.238;8.092;2022-12-18T00:10:27;100646.16;;;-6.53;75.42
68859;BME280;55864;49.238;8.092;2022-12-18T00:12:27;100649.59;;;-6.59;74.93
68859;BME280;55864;49.238;8.092;2022-12-18T00:14:28;100653.84;;;-6.55;74.54
68859;BME280;55864;49.238;8.092;2022-12-18T00:16:30;100649.59;;;-6.57;74.65
68859;BME280;55864;49.238;8.092;2022-12-18T00:18:31;100658.91;;;-6.46;74.66
68859;BME280;55864;49.238;8.092;2022-12-18T00:20:36;100649.56;;;-6.50;74.18
68859;BME280;55864;49.238;8.092;2022-12-18T00:22:36;100658.03;;;-6.40;74.96
68859;BME280;55864;49.238;8.092;2022-12-18T00:24:37;100666.66;;;-6.65;74.59
68859;BME280;55864;49.238;8.092;2022-12-18T00:26:38;100663.25;;;-6.64;74.55
68859;BME280;55864;49.238;8.092;2022-12-18T00:28:39;100652.94;;;-6.43;74.61
68859;BME280;55864;49.238;8.092;2022-12-18T00:30:39;100660.63;;;-6.49;74.78
68859;BME280;55864;49.238;8.092;2022-12-18T00:32:43;100658.06;;;-6.52;74.60
68859;BME280;55864;49.238;8.092;2022-12-18T00:34:43;100670.00;;;-6.54;74.87
68859;BME280;55864;49.238;8.092;2022-12-18T00:36:46;100671.78;;;-6.68;75.08
68859;BME280;55864;49.238;8.092;2022-12-18T00:38:47;100681.16;;;-6.77;74.23
68859;BME280;55864;49.238;8.092;2022-12-18T00:40:51;100664.13;;;-6.67;75.08
68859;BME280;55864;49.238;8.092;2022-12-18T00:42:52;100678.50;;;-6.46;75.84
68859;BME280;55864;49.238;8.092;2022-12-18T00:44:53;100678.56;;;-6.66;75.02
68859;BME280;55864;49.238;8.092;2022-12-18T00:46:53;100667.50;;;-6.59;74.81
68859;BME280;55864;49.238;8.092;2022-12-18T00:48:55;100655.56;;;-6.60;75.48
68859;BME280;55864;49.238;8.092;2022-12-18T00:50:56;100659.84;;;-6.63;75.17
68859;BME280;55864;49.238;8.092;2022-12-18T00:52:56;100670.88;;;-6.55;76.13
68859;BME280;55864;49.238;8.092;2022-12-18T00:54:57;100669.19;;;-6.59;75.57
68859;BME280;55864;49.238;8.092;2022-12-18T00:56:57;100675.91;;;-6.39;77.34
68859;BME280;55864;49.238;8.092;2022-12-18T00:58:58;100662.34;;;-6.51;76.08
68859;BME280;55864;49.238;8.092;2022-12-18T01:00:58;100675.94;;;-6.48;76.48
68859;BME280;55864;49.238;8.092;2022-12-18T01:02:59;100670.84;;;-6.54;76.36
68859;BME280;55864;49.238;8.092;2022-12-18T01:05:01;100669.97;;;-6.47;76.23
68859;BME280;55864;49.238;8.092;2022-12-18T01:07:02;100663.19;;;-6.58;76.26
68859;BME280;55864;49.238;8.092;2022-12-18T01:09:03;100668.34;;;-6.61;76.48
68859;BME280;55864;49.238;8.092;2022-12-18T01:11:07;100663.19;;;-6.52;76.03
68859;BME280;55864;49.238;8.092;2022-12-18T01:13:08;100672.63;;;-6.65;76.17
68859;BME280;55864;49.238;8.092;2022-12-18T01:15:10;100665.78;;;-6.60;75.73
68859;BME280;55864;49.238;8.092;2022-12-18T01:17:12;100665.78;;;-6.60;76.51
68859;BME280;55864;49.238;8.092;2022-12-18T01:19:12;100665.78;;;-6.66;76.53
68859;BME280;55864;49.238;8.092;2022-12-18T01:21:15;100667.56;;;-6.74;77.21
68859;BME280;55864;49.238;8.092;2022-12-18T01:23:16;100670.06;;;-6.65;77.30
68859;BME280;55864;49.238;8.092;2022-12-18T01:25:16;100652.16;;;-6.62;77.39
68859;BME280;55864;49.238;8.092;2022-12-18T01:27:17;100647.91;;;-6.57;77.01
68859;BME280;55864;49.238;8.092;2022-12-18T01:29:18;100653.84;;;-6.56;77.01
68859;BME280;55864;49.238;8.092;2022-12-18T01:31:21;100659.78;;;-6.56;76.98
68859;BME280;55864;49.238;8.092;2022-12-18T01:33:22;100661.41;;;-6.41;76.83
68859;BME280;55864;49.238;8.092;2022-12-18T01:35:22;100658.88;;;-6.43;77.31
68859;BME280;55864;49.238;8.092;2022-12-18T01:37:24;100669.13;;;-6.46;76.93
68859;BME280;55864;49.238;8.092;2022-12-18T01:39:25;100676.72;;;-6.32;77.22
68859;BME280;55864;49.238;8.092;2022-12-18T01:41:28;100680.22;;;-6.54;76.93
68859;BME280;55864;49.238;8.092;2022-12-18T01:43:50;100664.88;;;-6.45;77.50
68859;BME280;55864;49.238;8.092;2022-12-18T01:45:50;100663.13;;;-6.40;77.39
68859;BME280;55864;49.238;8.092;2022-12-18T01:47:53;100666.50;;;-6.35;76.90
68859;BME280;55864;49.238;8.092;2022-12-18T01:49:56;100664.00;;;-6.40;77.15
68859;BME280;55864;49.238;8.092;2022-12-18T01:51:57;100670.81;;;-6.42;77.27
68859;BME280;55864;49.238;8.092;2022-12-18T01:53:59;100663.97;;;-6.37;76.91
68859;BME280;55864;49.238;8.092;2022-12-18T01:55:59;100668.22;;;-6.39;77.18
68859;BME280;55864;49.238;8.092;2022-12-18T01:58:01;100663.13;;;-6.40;76.96
68859;BME280;55864;49.238;8.092;2022-12-18T02:00:07;100668.19;;;-6.31;76.71
68859;BME280;55864;49.238;8.092;2022-12-18T02:02:13;100679.28;;;-6.31;76.89
68859;BME280;55864;49.238;8.092;2022-12-18T02:04:20;100675.91;;;-6.39;77.38
68859;BME280;55864;49.238;8.092;2022-12-18T02:06:26;100669.91;;;-6.33;77.81
68859;BME280;55864;49.238;8.092;2022-12-18T02:08:36;100677.47;;;-6.18;77.94
68859;BME280;55864;49.238;8.092;2022-12-18T02:10:47;100673.19;;;-6.10;77.94
68859;BME280;55864;49.238;8.092;2022-12-18T02:13:04;100678.31;;;-6.12;78.07
68859;BME280;55864;49.238;8.092;2022-12-18T02:15:13;100667.19;;;-6.05;78.88
68859;BME280;55864;49.238;8.092;2022-12-18T02:17:18;100665.50;;;-6.10;79.49
68859;BME280;55864;49.238;8.092;2022-12-18T02:19:34;100684.16;;;-5.93;79.18
68859;BME280;55864;49.238;8.092;2022-12-18T02:21:45;100673.09;;;-6.00;77.87
68859;BME280;55864;49.238;8.092;2022-12-18T02:23:56;100685.03;;;-5.97;77.69
68859;BME280;55864;49.238;8.092;2022-12-18T02:26:10;100683.09;;;-5.68;77.53
68859;BME280;55864;49.238;8.092;2022-12-18T02:28:16;100675.56;;;-5.85;77.08
68859;BME280;55864;49.238;8.092;2022-12-18T02:30:18;100678.88;;;-5.77;76.90
68859;BME280;55864;49.238;8.092;2022-12-18T02:32:24;100673.00;;;-5.85;76.96
68859;BME280;55864;49.238;8.092;2022-12-18T02:34:28;100676.47;;;-5.93;77.16
68859;BME280;55864;49.238;8.092;2022-12-18T02:36:32;100678.13;;;-5.83;77.69
68859;BME280;55864;49.238;8.092;2022-12-18T02:38:34;100690.09;;;-5.91;78.89
68859;BME280;55864;49.238;8.092;2022-12-18T02:40:43;100691.00;;;-6.01;78.05
68859;BME280;55864;49.238;8.092;2022-12-18T02:42:48;100676.44;;;-5.87;77.75
68859;BME280;55864;49.238;8.092;2022-12-18T02:44:52;100684.13;;;-5.89;77.34
68859;BME280;55864;49.238;8.092;2022-12-18T02:46:57;100686.78;;;-6.05;77.56
68859;BME280;55864;49.238;8.092;2022-12-18T02:49:06;100679.91;;;-5.96;77.85
68859;BME280;55864;49.238;8.092;2022-12-18T02:51:17;100673.88;;;-5.86;77.97
68859;BME280;55864;49.238;8.092;2022-12-18T02:53:25;100685.66;;;-5.68;77.83
68859;BME280;55864;49.238;8.092;2022-12-18T02:55:42;100680.53;;;-5.71;77.22
68859;BME280;55864;49.238;8.092;2022-12-18T02:57:51;100689.97;;;-5.81;77.21
68859;BME280;55864;49.238;8.092;2022-12-18T03:00:02;100675.63;;;-5.91;77.28
68859;BME280;55864;49.238;8.092;2022-12-18T03:02:12;100673.75;;;-5.73;77.21
68859;BME280;55864;49.238;8.092;2022-12-18T03:04:20;100681.44;;;-5.78;77.02
68859;BME280;55864;49.238;8.092;2022-12-18T03:06:26;100668.78;;;-5.89;76.98
68859;BME280;55864;49.238;8.092;2022-12-18T03:08:31;100674.50;;;-5.61;77.07
68859;BME280;55864;49.238;8.092;2022-12-18T03:10:40;100680.56;;;-5.72;76.76
68859;BME280;55864;49.238;8.092;2022-12-18T03:12:47;100668.63;;;-5.75;77.09
68859;BME280;55864;49.238;8.092;2022-12-18T03:14:57;100668.53;;;-5.61;77.19
68859;BME280;55864;49.238;8.092;2022-12-18T03:17:02;100677.13;;;-5.73;76.66
68859;BME280;55864;49.238;8.092;2022-12-18T03:19:08;100679.66;;;-5.64;76.62
68859;BME280;55864;49.238;8.092;2022-12-18T03:21:14;100675.34;;;-5.62;76.75
68859;BME280;55864;49.238;8.092;2022-12-18T03:23:20;100671.13;;;-5.69;77.04
68859;BME280;55864;49.238;8.092;2022-12-18T03:25:25;100671.97;;;-5.65;76.89
68859;BME280;55864;49.238;8.092;2022-12-18T03:27:29;100665.94;;;-5.60;77.15
68859;BME280;55864;49.238;8.092;2022-12-18T03:29:37;100671.84;;;-5.49;77.17
68859;BME280;55864;49.238;8.092;2022-12-18T03:31:42;100676.94;;;-5.50;77.32
68859;BME280;55864;49.238;8.092;2022-12-18T03:33:51;100675.34;;;-5.59;76.83
68859;BME280;55864;49.238;8.092;2022-12-18T03:35:53;100679.56;;;-5.58;76.84
68859;BME280;55864;49.238;8.092;2022-12-18T03:37:53;100668.56;;;-5.64;77.46
68859;BME280;55864;49.238;8.092;2022-12-18T03:39:54;100670.19;;;-5.56;78.38
68859;BME280;55864;49.238;8.092;2022-12-18T03:42:01;100673.56;;;-5.52;78.11
68859;BME280;55864;49.238;8.092;2022-12-18T03:44:19;100671.91;;;-5.56;77.81
68859;BME280;55864;49.238;8.092;2022-12-18T03:46:26;100671.84;;;-5.52;77.75
68859;BME280;55864;49.238;8.092;2022-12-18T03:48:32;100676.13;;;-5.54;77.03
68859;BME280;55864;49.238;8.092;2022-12-18T03:50:44;100671.00;;;-5.51;78.21
68859;BME280;55864;49.238;8.092;2022-12-18T03:52:50;100664.09;;;-5.43;77.77
68859;BME280;55864;49.238;8.092;2022-12-18T03:54:55;100668.28;;;-5.34;77.79
68859;BME280;55864;49.238;8.092;2022-12-18T03:57:00;100665.81;;;-5.43;77.17
68859;BME280;55864;49.238;8.092;2022-12-18T03:59:04;100670.03;;;-5.41;77.30
68859;BME280;55864;49.238;8.092;2022-12-18T04:01:08;100671.00;;;-5.54;77.05
68859;BME280;55864;49.238;8.092;2022-12-18T04:03:10;100675.25;;;-5.51;77.00
68859;BME280;55864;49.238;8.092;2022-12-18T04:05:18;100671.94;;;-5.61;77.76
68859;BME280;55864;49.238;8.092;2022-12-18T04:07:20;100676.13;;;-5.54;77.44
68859;BME280;55864;49.238;8.092;2022-12-18T04:09:22;100671.84;;;-5.50;78.64
68859;BME280;55864;49.238;8.092;2022-12-18T04:11:23;100669.06;;;-5.28;78.31
68859;BME280;55864;49.238;8.092;2022-12-18T04:13:24;100669.91;;;-5.26;77.82
68859;BME280;55864;49.238;8.092;2022-12-18T04:15:27;100665.81;;;-5.42;77.25
68859;BME280;55864;49.238;8.092;2022-12-18T04:17:29;100662.31;;;-5.32;77.38
68859;BME280;55864;49.238;8.092;2022-12-18T04:19:31;100664.88;;;-5.32;77.21
68859;BME280;55864;49.238;8.092;2022-12-18T04:21:34;100671.78;;;-5.41;77.36
68859;BME280;55864;49.238;8.092;2022-12-18T04:23:34;100660.50;;;-5.24;78.96
68859;BME280;55864;49.238;8.092;2022-12-18T04:25:35;100663.94;;;-5.25;78.83
68859;BME280;55864;49.238;8.092;2022-12-18T04:27:43;100665.59;;;-5.21;79.57
68859;BME280;55864;49.238;8.092;2022-12-18T04:29:44;100661.16;;;-5.07;81.50
68859;BME280;55864;49.238;8.092;2022-12-18T04:31:45;100658.50;;;-4.95;80.95
68859;BME280;55864;49.238;8.092;2022-12-18T04:33:45;100666.97;;;-4.90;80.09
68859;BME280;55864;49.238;8.092;2022-12-18T04:35:47;100666.06;;;-4.83;80.91
68859;BME280;55864;49.238;8.092;2022-12-18T04:37:49;100674.72;;;-4.96;80.65
68859;BME280;55864;49.238;8.092;2022-12-18T04:39:50;100666.28;;;-5.07;80.18
68859;BME280;55864;49.238;8.092;2022-12-18T04:41:59;100662.94;;;-5.12;78.22
68859;BME280;55864;49.238;8.092;2022-12-18T04:44:00;100675.50;;;-4.89;78.32
68859;BME280;55864;49.238;8.092;2022-12-18T04:46:03;100667.03;;;-4.96;76.83
68859;BME280;55864;49.238;8.092;2022-12-18T04:48:04;100659.31;;;-4.93;76.77
68859;BME280;55864;49.238;8.092;2022-12-18T04:50:06;100666.91;;;-4.85;76.73
68859;BME280;55864;49.238;8.092;2022-12-18T04:52:06;100678.25;;;-5.09;76.45
68859;BME280;55864;49.238;8.092;2022-12-18T04:54:08;100668.03;;;-5.09;75.93
68859;BME280;55864;49.238;8.092;2022-12-18T04:56:10;100668.19;;;-5.25;75.91
68859;BME280;55864;49.238;8.092;2022-12-18T04:58:11;100664.84;;;-5.33;76.44
68859;BME280;55864;49.238;8.092;2022-12-18T05:00:13;100664.91;;;-5.36;76.61
68859;BME280;55864;49.238;8.092;2022-12-18T05:02:13;100666.56;;;-5.32;76.69
68859;BME280;55864;49.238;8.092;2022-12-18T05:04:14;100669.19;;;-5.43;76.36
68859;BME280;55864;49.238;8.092;2022-12-18T05:06:14;100678.53;;;-5.36;76.38
68859;BME280;55864;49.238;8.092;2022-12-18T05:08:15;100676.84;;;-5.38;75.76
68859;BME280;55864;49.238;8.092;2022-12-18T05:10:17;100665.03;;;-5.54;75.60
68859;BME280;55864;49.238;8.092;2022-12-18T05:12:17;100671.00;;;-5.54;75.80
68859;BME280;55864;49.238;8.092;2022-12-18T05:14:18;100671.00;;;-5.51;75.73
68859;BME280;55864;49.238;8.092;2022-12-18T05:16:18;100665.03;;;-5.51;75.54
68859;BME280;55864;49.238;8.092;2022-12-18T05:18:19;100665.88;;;-5.52;75.72
68859;BME280;55864;49.238;8.092;2022-12-18T05:20:19;100663.34;;;-5.54;76.08
68859;BME280;55864;49.238;8.092;2022-12-18T05:22:20;100660.81;;;-5.60;75.94
68859;BME280;55864;49.238;8.092;2022-12-18T05:24:20;100673.56;;;-5.51;76.36
68859;BME280;55864;49.238;8.092;2022-12-18T05:26:22;100672.78;;;-5.60;76.23
68859;BME280;55864;49.238;8.092;2022-12-18T05:28:24;100664.34;;;-5.73;76.72
68859;BME280;55864;49.238;8.092;2022-12-18T05:30:25;100665.97;;;-5.63;76.24
68859;BME280;55864;49.238;8.092;2022-12-18T05:32:26;100671.06;;;-5.61;76.66
68859;BME280;55864;49.238;8.092;2022-12-18T05:34:27;100671.97;;;-5.64;75.98
68859;BME280;55864;49.238;8.092;2022-12-18T05:36:27;100668.63;;;-5.73;76.02
68859;BME280;55864;49.238;8.092;2022-12-18T05:38:29;100671.13;;;-5.66;76.53
68859;BME280;55864;49.238;8.092;2022-12-18T05:40:29;100669.47;;;-5.73;76.57
68859;BME280;55864;49.238;8.092;2022-12-18T05:42:31;100672.91;;;-5.74;76.09
68859;BME280;55864;49.238;8.092;2022-12-18T05:44:32;100674.59;;;-5.75;76.82
68859;BME280;55864;49.238;8.092;2022-12-18T05:46:32;100674.56;;;-5.73;76.77
68859;BME280;55864;49.238;8.092;2022-12-18T05:48:33;100678.78;;;-5.64;76.13
68859;BME280;55864;49.238;8.092;2022-12-18T05:50:34;100683.09;;;-5.71;76.75
68859;BME280;55864;49.238;8.092;2022-12-18T05:52:35;100678.94;;;-5.81;76.64
68859;BME280;55864;49.238;8.092;2022-12-18T05:54:36;100688.25;;;-5.79;76.75
68859;BME280;55864;49.238;8.092;2022-12-18T05:56:36;100683.00;;;-5.57;76.44
68859;BME280;55864;49.238;8.092;2022-12-18T05:58:39;100686.59;;;-5.80;76.11
68859;BME280;55864;49.238;8.092;2022-12-18T06:00:44;100689.06;;;-5.70;76.94
68859;BME280;55864;49.238;8.092;2022-12-18T06:02:46;100694.22;;;-5.73;76.95
68859;BME280;55864;49.238;8.092;2022-12-18T06:04:47;100699.34;;;-5.73;76.67
68859;BME280;55864;49.238;8.092;2022-12-18T06:06:47;100700.19;;;-5.76;76.81
68859;BME280;55864;49.238;8.092;2022-12-18T06:08:48;100696.88;;;-5.84;76.61
68859;BME280;55864;49.238;8.092;2022-12-18T06:10:50;100699.47;;;-5.89;76.67
68859;BME280;55864;49.238;8.092;2022-12-18T06:12:51;100707.94;;;-5.84;76.75
68859;BME280;55864;49.238;8.092;2022-12-18T06:14:53;100711.41;;;-5.91;76.33
68859;BME280;55864;49.238;8.092;2022-12-18T06:16:53;100706.16;;;-5.76;76.60
68859;BME280;55864;49.238;8.092;2022-12-18T06:18:56;100701.84;;;-5.70;77.00
68859;BME280;55864;49.238;8.092;2022-12-18T06:20:57;100693.31;;;-5.71;76.68
68859;BME280;55864;49.238;8.092;2022-12-18T06:22:57;100699.31;;;-5.72;76.18
68859;BME280;55864;49.238;8.092;2022-12-18T06:24:58;100711.28;;;-5.76;76.46
68859;BME280;55864;49.238;8.092;2022-12-18T06:26:58;100706.91;;;-5.63;76.55
68859;BME280;55864;49.238;8.092;2022-12-18T06:28:59;100710.13;;;-5.38;76.02
68859;BME280;55864;49.238;8.092;2022-12-18T06:31:02;100713.56;;;-5.42;75.51
68859;BME280;55864;49.238;8.092;2022-12-18T06:33:02;100710.34;;;-5.64;75.78
68859;BME280;55864;49.238;8.092;2022-12-18T06:35:04;100713.72;;;-5.62;76.17
68859;BME280;55864;49.238;8.092;2022-12-18T06:37:04;100714.63;;;-5.67;75.66
68859;BME280;55864;49.238;8.092;2022-12-18T06:39:05;100726.56;;;-5.66;75.78
68859;BME280;55864;49.238;8.092;2022-12-18T06:41:06;100722.34;;;-5.72;75.47
68859;BME280;55864;49.238;8.092;2022-12-18T06:43:07;100724.88;;;-5.69;76.06
68859;BME280;55864;49.238;8.092;2022-12-18T06:45:08;100719.78;;;-5.75;75.58
68859;BME280;55864;49.238;8.092;2022-12-18T06:47:10;100722.41;;;-5.80;75.40
68859;BME280;55864;49.238;8.092;2022-12-18T06:49:11;100723.31;;;-5.84;76.27
68859;BME280;55864;49.238;8.092;2022-12-18T06:51:12;100724.09;;;-5.82;75.76
68859;BME280;55864;49.238;8.092;2022-12-18T06:53:12;100726.72;;;-5.88;76.84
68859;BME280;55864;49.238;8.092;2022-12-18T06:55:13;100738.53;;;-5.73;75.96
68859;BME280;55864;49.238;8.092;2022-12-18T06:57:13;100730.16;;;-5.87;76.06
68859;BME280;55864;49.238;8.092;2022-12-18T06:59:14;100749.75;;;-5.89;76.25
68859;BME280;55864;49.238;8.092;2022-12-18T07:01:14;100742.78;;;-5.69;76.25
68859;BME280;55864;49.238;8.092;2022-12-18T07:03:16;100743.63;;;-5.68;75.63
68859;BME280;55864;49.238;8.092;2022-12-18T07:05:17;100741.91;;;-5.69;75.86
68859;BME280;55864;49.238;8.092;2022-12-18T07:07:17;100738.59;;;-5.79;75.13
68859;BME280;55864;49.238;8.092;2022-12-18T07:09:18;100739.41;;;-5.77;75.08
68859;BME280;55864;49.238;8.092;2022-12-18T07:11:19;100736.78;;;-5.66;75.01
68859;BME280;55864;49.238;8.092;2022-12-18T07:13:20;100736.09;;;-5.85;74.95
68859;BME280;55864;49.238;8.092;2022-12-18T07:15:20;100732.78;;;-5.96;74.97
68859;BME280;55864;49.238;8.092;2022-12-18T07:17:21;100727.56;;;-5.84;75.12
68859;BME280;55864;49.238;8.092;2022-12-18T07:19:23;100726.75;;;-5.94;75.38
68859;BME280;55864;49.238;8.092;2022-12-18T07:21:24;100729.34;;;-5.95;75.41
68859;BME280;55864;49.238;8.092;2022-12-18T07:23:24;100733.63;;;-6.03;75.75
68859;BME280;55864;49.238;8.092;2022-12-18T07:25:25;100735.31;;;-5.95;75.67
68859;BME280;55864;49.238;8.092;2022-12-18T07:27:25;100743.91;;;-6.12;75.67
68859;BME280;55864;49.238;8.092;2022-12-18T07:29:26;100738.78;;;-6.11;75.41
68859;BME280;55864;49.238;8.092;2022-12-18T07:31:27;100749.81;;;-6.01;75.45
68859;BME280;55864;49.238;8.092;2022-12-18T07:33:27;100741.25;;;-5.91;74.95
68859;BME280;55864;49.238;8.092;2022-12-18T07:35:29;100754.84;;;-5.83;74.92
68859;BME280;55864;49.238;8.092;2022-12-18T07:37:30;100740.38;;;-5.90;75.05
68859;BME280;55864;49.238;8.092;2022-12-18T07:39:30;100751.44;;;-5.88;75.00
68859;BME280;55864;49.238;8.092;2022-12-18T07:41:31;100760.72;;;-5.73;75.51
68859;BME280;55864;49.238;8.092;2022-12-18T07:43:41;100754.75;;;-5.77;74.94
68859;BME280;55864;49.238;8.092;2022-12-18T07:45:42;100754.03;;;-5.94;75.47
68859;BME280;55864;49.238;8.092;2022-12-18T07:47:43;100754.13;;;-6.06;75.17
68859;BME280;55864;49.238;8.092;2022-12-18T07:49:44;100757.44;;;-5.94;75.19
68859;BME280;55864;49.238;8.092;2022-12-18T07:51:48;100755.84;;;-6.08;75.34
68859;BME280;55864;49.238;8.092;2022-12-18T07:53:49;100764.41;;;-6.18;75.51
68859;BME280;55864;49.238;8.092;2022-12-18T07:55:55;100765.22;;;-6.10;75.69
68859;BME280;55864;49.238;8.092;2022-12-18T07:57:55;100771.09;;;-5.92;75.56
68859;BME280;55864;49.238;8.092;2022-12-18T07:59:56;100774.63;;;-6.20;75.79
68859;BME280;55864;49.238;8.092;2022-12-18T08:01:56;100776.31;;;-6.11;75.81
68859;BME280;55864;49.238;8.092;2022-12-18T08:03:57;100777.13;;;-6.09;75.95
68859;BME280;55864;49.238;8.092;2022-12-18T08:05:59;100773.78;;;-6.20;75.82
68859;BME280;55864;49.238;8.092;2022-12-18T08:08:01;100775.41;;;-5.98;76.35
68859;BME280;55864;49.238;8.092;2022-12-18T08:10:02;100779.47;;;-5.70;75.81
68859;BME280;55864;49.238;8.092;2022-12-18T08:12:03;100778.75;;;-5.92;74.95
68859;BME280;55864;49.238;8.092;2022-12-18T08:14:03;100782.94;;;-5.80;75.25
68859;BME280;55864;49.238;8.092;2022-12-18T08:16:06;100783.03;;;-5.95;75.34
68859;BME280;55864;49.238;8.092;2022-12-18T08:18:07;100778.69;;;-5.81;75.60
68859;BME280;55864;49.238;8.092;2022-12-18T08:20:08;100771.81;;;-5.75;75.82
68859;BME280;55864;49.238;8.092;2022-12-18T08:22:09;100774.44;;;-5.87;75.19
68859;BME280;55864;49.238;8.092;2022-12-18T08:24:11;100766.63;;;-5.67;75.22
68859;BME280;55864;49.238;8.092;2022-12-18T08:26:12;100771.91;;;-5.84;75.28
68859;BME280;55864;49.238;8.092;2022-12-18T08:28:13;100769.28;;;-5.81;75.22
68859;BME280;55864;49.238;8.092;2022-12-18T08:30:14;100764.13;;;-5.71;75.29
68859;BME280;55864;49.238;8.092;2022-12-18T08:32:14;100755.53;;;-5.64;75.57
68859;BME280;55864;49.238;8.092;2022-12-18T08:34:15;100755.66;;;-5.80;75.73
68859;BME280;55864;49.238;8.092;2022-12-18T08:36:15;100746.06;;;-5.52;75.31
68859;BME280;55864;49.238;8.092;2022-12-18T08:38:16;100747.66;;;-5.39;74.93
68859;BME280;55864;49.238;8.092;2022-12-18T08:40:18;100751.09;;;-5.43;74.52
68859;BME280;55864;49.238;8.092;2022-12-18T08:42:19;100746.75;;;-5.33;74.81
68859;BME280;55864;49.238;8.092;2022-12-18T08:44:19;100744.94;;;-5.19;74.36
68859;BME280;55864;49.238;8.092;2022-12-18T08:46:21;100747.75;;;-5.48;74.52
68859;BME280;55864;49.238;8.092;2022-12-18T08:48:22;100748.69;;;-5.59;75.60
68859;BME280;55864;49.238;8.092;2022-12-18T08:50:22;100747.78;;;-5.54;75.34
68859;BME280;55864;49.238;8.092;2022-12-18T08:52:23;100747.69;;;-5.42;76.35
68859;BME280;55864;49.238;8.092;2022-12-18T08:54:24;100749.56;;;-5.60;76.32
68859;BME280;55864;49.238;8.092;2022-12-18T08:56:26;100739.22;;;-5.47;75.26
68859;BME280;55864;49.238;8.092;2022-12-18T08:58:26;100733.16;;;-5.38;75.55
68859;BME280;55864;49.238;8.092;2022-12-18T09:00:27;100734.13;;;-5.54;75.44
68859;BME280;55864;49.238;8.092;2022-12-18T09:02:28;100729.72;;;-5.37;75.70
68859;BME280;55864;49.238;8.092;2022-12-18T09:04:28;100729.47;;;-5.09;75.36
68859;BME280;55864;49.238;8.092;2022-12-18T09:06:29;100727.00;;;-5.18;75.51
68859;BME280;55864;49.238;8.092;2022-12-18T09:08:29;100737.31;;;-5.24;74.47
68859;BME280;55864;49.238;8.092;2022-12-18T09:10:30;100737.41;;;-5.37;74.90
68859;BME280;55864;49.238;8.092;2022-12-18T09:12:32;100739.91;;;-5.27;75.03
68859;BME280;55864;49.238;8.092;2022-12-18T09:14:32;100744.31;;;-5.44;75.24
68859;BME280;55864;49.238;8.092;2022-12-18T09:16:33;100740.78;;;-5.31;75.02
68859;BME280;55864;49.238;8.092;2022-12-18T09:18:34;100745.03;;;-5.30;75.36
68859;BME280;55864;49.238;8.092;2022-12-18T09:20:34;100751.69;;;-5.09;74.85
68859;BME280;55864;49.238;8.092;2022-12-18T09:22:35;100760.34;;;-5.24;74.66
68859;BME280;55864;49.238;8.092;2022-12-18T09:24:35;100758.56;;;-5.14;75.13
68859;BME280;55864;49.238;8.092;2022-12-18T09:26:36;100754.38;;;-5.23;74.34
68859;BME280;55864;49.238;8.092;2022-12-18T09:28:38;100771.28;;;-5.05;74.50
68859;BME280;55864;49.238;8.092;2022-12-18T09:30:40;100771.41;;;-5.19;74.04
68859;BME280;55864;49.238;8.092;2022-12-18T09:32:41;100767.00;;;-5.05;74.86
68859;BME280;55864;49.238;8.092;2022-12-18T09:34:41;100768.78;;;-5.11;74.73
68859;BME280;55864;49.238;8.092;2022-12-18T09:36:42;100778.91;;;-4.99;74.19
68859;BME280;55864;49.238;8.092;2022-12-18T09:38:43;100780.66;;;-5.03;74.47
68859;BME280;55864;49.238;8.092;2022-12-18T09:40:45;100780.63;;;-5.01;74.04
68859;BME280;55864;49.238;8.092;2022-12-18T09:42:51;100782.44;;;-5.09;74.58
68859;BME280;55864;49.238;8.092;2022-12-18T09:44:54;100776.41;;;-5.04;74.33
68859;BME280;55864;49.238;8.092;2022-12-18T09:47:02;100783.25;;;-5.06;74.94
68859;BME280;55864;49.238;8.092;2022-12-18T09:49:09;100790.09;;;-5.08;74.87
68859;BME280;55864;49.238;8.092;2022-12-18T09:51:15;100786.66;;;-5.04;74.58
68859;BME280;55864;49.238;8.092;2022-12-18T09:53:21;100776.31;;;-4.95;75.17
68859;BME280;55864;49.238;8.092;2022-12-18T09:55:29;100774.53;;;-4.87;74.33
68859;BME280;55864;49.238;8.092;2022-12-18T09:57:33;100775.38;;;-4.88;74.08
68859;BME280;55864;49.238;8.092;2022-12-18T09:59:38;100777.09;;;-4.87;74.95
68859;BME280;55864;49.238;8.092;2022-12-18T10:01:40;100784.81;;;-4.90;74.97
68859;BME280;55864;49.238;8.092;2022-12-18T10:03:41;100779.59;;;-4.82;73.90
68859;BME280;55864;49.238;8.092;2022-12-18T10:05:47;100789.59;;;-4.58;74.09
68859;BME280;55864;49.238;8.092;2022-12-18T10:07:58;100790.44;;;-4.56;73.89
68859;BME280;55864;49.238;8.092;2022-12-18T10:10:05;100782.97;;;-4.75;74.13
68859;BME280;55864;49.238;8.092;2022-12-18T10:12:12;100785.56;;;-4.80;73.89
68859;BME280;55864;49.238;8.092;2022-12-18T10:14:18;100787.94;;;-4.63;73.62
68859;BME280;55864;49.238;8.092;2022-12-18T10:16:29;100770.84;;;-4.58;73.29
68859;BME280;55864;49.238;8.092;2022-12-18T10:18:47;100767.28;;;-4.45;73.82
68859;BME280;55864;49.238;8.092;2022-12-18T10:20:56;100772.25;;;-4.32;73.74
68859;BME280;55864;49.238;8.092;2022-12-18T10:23:04;100768.03;;;-4.39;73.11
68859;BME280;55864;49.238;8.092;2022-12-18T10:25:19;100773.06;;;-4.30;72.65
68859;BME280;55864;49.238;8.092;2022-12-18T10:27:23;100770.69;;;-4.45;72.98
68859;BME280;55864;49.238;8.092;2022-12-18T10:29:25;100779.13;;;-4.35;73.41
68859;BME280;55864;49.238;8.092;2022-12-18T10:31:25;100775.63;;;-4.28;73.25
68859;BME280;55864;49.238;8.092;2022-12-18T10:33:29;100761.09;;;-4.28;73.22
68859;BME280;55864;49.238;8.092;2022-12-18T10:35:31;100761.84;;;-4.21;73.28
68859;BME280;55864;49.238;8.092;2022-12-18T10:37:32;100760.22;;;-4.27;73.49
68859;BME280;55864;49.238;8.092;2022-12-18T10:39:32;100765.38;;;-4.31;74.26
68859;BME280;55864;49.238;8.092;2022-12-18T10:41:33;100762.78;;;-4.27;75.51